sensor_id;sensor_type;location;lat;lon;timestamp;P1;durP1;ratioP1;P2;durP2;ratioP2
59530;SDS011;45349;48.692;8.186;2024-01-30T00:02:13;6.17;;;4.07;;
59530;SDS011;45349;48.692;8.186;2024-01-30T00:04:39;7.27;;;4.13;;
59530;SDS011;45349;48.692;8.186;2024-01-30T00:07:08;12.70;;;4.27;;
59530;SDS011;45349;48.692;8.186;2024-01-30T00:09:34;4.73;;;3.70;;
59530;SDS011;45349;48.692;8.186;2024-01-30T00:12:01;7.80;;;4.57;;
59530;SDS011;45349;48.692;8.186;2024-01-30T00:14:28;8.67;;;4.60;;
59530;SDS011;45349;48.692;8.186;2024-01-30T00:16:55;6.83;;;4.40;;
59530;SDS011;45349;48.692;8.186;2024-01-30T00:19:21;6.87;;;4.20;;
59530;SDS011;45349;48.692;8.186;2024-01-30T00:21:48;9.13;;;4.67;;
59530;SDS011;45349;48.692;8.186;2024-01-30T00:24:16;7.50;;;4.70;;
59530;SDS011;45349;48.692;8.186;2024-01-30T00:26:43;8.03;;;4.80;;
59530;SDS011;45349;48.692;8.186;2024-01-30T00:29:10;8.37;;;4.83;;
59530;SDS011;45349;48.692;8.186;2024-01-30T00:31:37;10.60;;;5.00;;
59530;SDS011;45349;48.692;8.186;2024-01-30T00:34:03;9.33;;;5.17;;
59530;SDS011;45349;48.692;8.186;2024-01-30T00:36:30;7.23;;;4.43;;
59530;SDS011;45349;48.692;8.186;2024-01-30T00:38:57;10.83;;;4.70;;
59530;SDS011;45349;48.692;8.186;2024-01-30T00:41:26;8.13;;;4.63;;
59530;SDS011;45349;48.692;8.186;2024-01-30T00:43:53;8.00;;;4.30;;
59530;SDS011;45349;48.692;8.186;2024-01-30T00:46:19;8.07;;;4.47;;
59530;SDS011;45349;48.692;8.186;2024-01-30T00:48:46;7.80;;;4.80;;
59530;SDS011;45349;48.692;8.186;2024-01-30T00:51:12;11.30;;;4.80;;
59530;SDS011;45349;48.692;8.186;2024-01-30T00:53:40;6.90;;;4.60;;
59530;SDS011;45349;48.692;8.186;2024-01-30T00:56:06;9.83;;;4.57;;
59530;SDS011;45349;48.692;8.186;2024-01-30T00:58:35;11.07;;;5.60;;
59530;SDS011;45349;48.692;8.186;2024-01-30T01:01:01;10.87;;;6.03;;
59530;SDS011;45349;48.692;8.186;2024-01-30T01:03:29;10.20;;;4.77;;
59530;SDS011;45349;48.692;8.186;2024-01-30T01:05:56;7.97;;;5.03;;
59530;SDS011;45349;48.692;8.186;2024-01-30T01:08:22;8.67;;;4.90;;
59530;SDS011;45349;48.692;8.186;2024-01-30T01:10:49;10.37;;;4.80;;
59530;SDS011;45349;48.692;8.186;2024-01-30T01:13:15;8.33;;;4.63;;
59530;SDS011;45349;48.692;8.186;2024-01-30T01:15:43;6.33;;;4.13;;
59530;SDS011;45349;48.692;8.186;2024-01-30T01:18:10;6.37;;;4.70;;
59530;SDS011;45349;48.692;8.186;2024-01-30T01:20:37;7.27;;;4.40;;
59530;SDS011;45349;48.692;8.186;2024-01-30T01:23:03;7.97;;;4.30;;
59530;SDS011;45349;48.692;8.186;2024-01-30T01:25:30;9.27;;;4.37;;
59530;SDS011;45349;48.692;8.186;2024-01-30T01:27:56;10.50;;;5.20;;
59530;SDS011;45349;48.692;8.186;2024-01-30T01:30:23;10.47;;;5.83;;
59530;SDS011;45349;48.692;8.186;2024-01-30T01:32:52;13.57;;;6.07;;
59530;SDS011;45349;48.692;8.186;2024-01-30T01:35:22;9.77;;;5.40;;
59530;SDS011;45349;48.692;8.186;2024-01-30T01:37:49;8.30;;;5.43;;
59530;SDS011;45349;48.692;8.186;2024-01-30T01:40:20;7.60;;;5.37;;
59530;SDS011;45349;48.692;8.186;2024-01-30T01:42:49;11.00;;;5.57;;
59530;SDS011;45349;48.692;8.186;2024-01-30T01:45:16;8.53;;;5.27;;
59530;SDS011;45349;48.692;8.186;2024-01-30T01:47:43;14.30;;;6.00;;
59530;SDS011;45349;48.692;8.186;2024-01-30T01:50:13;8.50;;;5.57;;
59530;SDS011;45349;48.692;8.186;2024-01-30T01:52:44;8.67;;;5.77;;
59530;SDS011;45349;48.692;8.186;2024-01-30T01:55:12;13.83;;;6.43;;
59530;SDS011;45349;48.692;8.186;2024-01-30T01:57:40;11.27;;;6.77;;
59530;SDS011;45349;48.692;8.186;2024-01-30T02:00:08;12.57;;;6.77;;
59530;SDS011;45349;48.692;8.186;2024-01-30T02:02:36;13.33;;;6.60;;
59530;SDS011;45349;48.692;8.186;2024-01-30T02:05:03;11.30;;;6.60;;
59530;SDS011;45349;48.692;8.186;2024-01-30T02:07:31;12.63;;;6.77;;
59530;SDS011;45349;48.692;8.186;2024-01-30T02:09:58;13.87;;;6.83;;
59530;SDS011;45349;48.692;8.186;2024-01-30T02:12:25;13.50;;;7.00;;
59530;SDS011;45349;48.692;8.186;2024-01-30T02:14:51;10.60;;;5.63;;
59530;SDS011;45349;48.692;8.186;2024-01-30T02:17:18;8.73;;;5.03;;
59530;SDS011;45349;48.692;8.186;2024-01-30T02:19:45;9.27;;;4.90;;
59530;SDS011;45349;48.692;8.186;2024-01-30T02:22:13;7.57;;;3.90;;
59530;SDS011;45349;48.692;8.186;2024-01-30T02:24:40;9.57;;;4.77;;
59530;SDS011;45349;48.692;8.186;2024-01-30T02:27:07;7.93;;;5.23;;
59530;SDS011;45349;48.692;8.186;2024-01-30T02:29:33;8.37;;;5.37;;
59530;SDS011;45349;48.692;8.186;2024-01-30T02:32:00;6.73;;;4.30;;
59530;SDS011;45349;48.692;8.186;2024-01-30T02:34:27;9.83;;;5.17;;
59530;SDS011;45349;48.692;8.186;2024-01-30T02:36:53;11.83;;;6.27;;
59530;SDS011;45349;48.692;8.186;2024-01-30T02:39:21;8.83;;;5.40;;
59530;SDS011;45349;48.692;8.186;2024-01-30T02:41:48;10.47;;;6.03;;
59530;SDS011;45349;48.692;8.186;2024-01-30T02:44:15;12.57;;;6.30;;
59530;SDS011;45349;48.692;8.186;2024-01-30T02:46:41;13.37;;;6.27;;
59530;SDS011;45349;48.692;8.186;2024-01-30T02:49:08;10.97;;;5.90;;
59530;SDS011;45349;48.692;8.186;2024-01-30T02:51:35;10.73;;;5.87;;
59530;SDS011;45349;48.692;8.186;2024-01-30T02:54:01;11.10;;;5.93;;
59530;SDS011;45349;48.692;8.186;2024-01-30T02:56:29;11.73;;;5.43;;
59530;SDS011;45349;48.692;8.186;2024-01-30T02:58:56;9.13;;;5.80;;
59530;SDS011;45349;48.692;8.186;2024-01-30T03:01:22;8.67;;;5.67;;
59530;SDS011;45349;48.692;8.186;2024-01-30T03:03:50;9.17;;;5.37;;
59530;SDS011;45349;48.692;8.186;2024-01-30T03:06:16;9.17;;;5.33;;
59530;SDS011;45349;48.692;8.186;2024-01-30T03:08:45;10.00;;;5.47;;
59530;SDS011;45349;48.692;8.186;2024-01-30T03:11:11;7.83;;;4.70;;
59530;SDS011;45349;48.692;8.186;2024-01-30T03:13:39;8.80;;;5.07;;
59530;SDS011;45349;48.692;8.186;2024-01-30T03:16:06;11.23;;;5.27;;
59530;SDS011;45349;48.692;8.186;2024-01-30T03:18:34;7.33;;;5.23;;
59530;SDS011;45349;48.692;8.186;2024-01-30T03:21:01;8.93;;;4.70;;
59530;SDS011;45349;48.692;8.186;2024-01-30T03:23:29;9.80;;;5.40;;
59530;SDS011;45349;48.692;8.186;2024-01-30T03:25:57;10.80;;;5.23;;
59530;SDS011;45349;48.692;8.186;2024-01-30T03:28:24;10.13;;;5.13;;
59530;SDS011;45349;48.692;8.186;2024-01-30T03:30:52;6.87;;;4.57;;
59530;SDS011;45349;48.692;8.186;2024-01-30T03:33:18;8.70;;;4.83;;
59530;SDS011;45349;48.692;8.186;2024-01-30T03:35:45;8.60;;;4.57;;
59530;SDS011;45349;48.692;8.186;2024-01-30T03:38:11;7.33;;;4.90;;
59530;SDS011;45349;48.692;8.186;2024-01-30T03:40:38;7.03;;;4.40;;
59530;SDS011;45349;48.692;8.186;2024-01-30T03:43:05;6.40;;;4.23;;
59530;SDS011;45349;48.692;8.186;2024-01-30T03:45:31;11.20;;;5.00;;
59530;SDS011;45349;48.692;8.186;2024-01-30T03:47:59;10.50;;;5.37;;
59530;SDS011;45349;48.692;8.186;2024-01-30T03:50:26;8.73;;;4.47;;
59530;SDS011;45349;48.692;8.186;2024-01-30T03:52:53;9.97;;;4.27;;
59530;SDS011;45349;48.692;8.186;2024-01-30T03:55:19;6.73;;;4.30;;
59530;SDS011;45349;48.692;8.186;2024-01-30T03:57:46;8.07;;;3.63;;
59530;SDS011;45349;48.692;8.186;2024-01-30T04:00:14;8.30;;;5.30;;
59530;SDS011;45349;48.692;8.186;2024-01-30T04:02:41;6.50;;;4.60;;
59530;SDS011;45349;48.692;8.186;2024-01-30T04:05:09;9.20;;;4.90;;
59530;SDS011;45349;48.692;8.186;2024-01-30T04:07:35;11.90;;;5.90;;
59530;SDS011;45349;48.692;8.186;2024-01-30T04:10:02;7.70;;;4.60;;
59530;SDS011;45349;48.692;8.186;2024-01-30T04:12:30;7.30;;;4.20;;
59530;SDS011;45349;48.692;8.186;2024-01-30T04:14:57;6.57;;;4.10;;
59530;SDS011;45349;48.692;8.186;2024-01-30T04:17:24;5.83;;;3.63;;
59530;SDS011;45349;48.692;8.186;2024-01-30T04:19:50;6.20;;;3.50;;
59530;SDS011;45349;48.692;8.186;2024-01-30T04:22:18;7.07;;;3.20;;
59530;SDS011;45349;48.692;8.186;2024-01-30T04:24:45;4.80;;;3.20;;
59530;SDS011;45349;48.692;8.186;2024-01-30T04:27:11;7.63;;;3.27;;
59530;SDS011;45349;48.692;8.186;2024-01-30T04:29:38;7.33;;;3.27;;
59530;SDS011;45349;48.692;8.186;2024-01-30T04:32:05;5.27;;;2.80;;
59530;SDS011;45349;48.692;8.186;2024-01-30T04:34:32;4.97;;;2.47;;
59530;SDS011;45349;48.692;8.186;2024-01-30T04:36:59;4.73;;;3.07;;
59530;SDS011;45349;48.692;8.186;2024-01-30T04:39:27;4.90;;;2.53;;
59530;SDS011;45349;48.692;8.186;2024-01-30T04:41:53;4.00;;;3.00;;
59530;SDS011;45349;48.692;8.186;2024-01-30T04:44:20;5.33;;;3.20;;
59530;SDS011;45349;48.692;8.186;2024-01-30T04:46:46;4.33;;;2.67;;
59530;SDS011;45349;48.692;8.186;2024-01-30T04:49:13;7.40;;;2.93;;
59530;SDS011;45349;48.692;8.186;2024-01-30T04:51:40;4.47;;;2.40;;
59530;SDS011;45349;48.692;8.186;2024-01-30T04:54:06;5.77;;;2.57;;
59530;SDS011;45349;48.692;8.186;2024-01-30T04:56:34;4.60;;;2.73;;
59530;SDS011;45349;48.692;8.186;2024-01-30T04:59:01;7.17;;;2.63;;
59530;SDS011;45349;48.692;8.186;2024-01-30T05:01:28;4.93;;;2.70;;
59530;SDS011;45349;48.692;8.186;2024-01-30T05:03:54;5.33;;;2.63;;
59530;SDS011;45349;48.692;8.186;2024-01-30T05:06:24;5.67;;;2.70;;
59530;SDS011;45349;48.692;8.186;2024-01-30T05:08:51;4.53;;;2.80;;
59530;SDS011;45349;48.692;8.186;2024-01-30T05:11:18;5.00;;;2.67;;
59530;SDS011;45349;48.692;8.186;2024-01-30T05:13:46;8.30;;;2.97;;
59530;SDS011;45349;48.692;8.186;2024-01-30T05:16:13;6.53;;;2.40;;
59530;SDS011;45349;48.692;8.186;2024-01-30T05:18:39;3.73;;;2.67;;
59530;SDS011;45349;48.692;8.186;2024-01-30T05:21:06;6.97;;;2.80;;
59530;SDS011;45349;48.692;8.186;2024-01-30T05:23:33;9.03;;;2.70;;
59530;SDS011;45349;48.692;8.186;2024-01-30T05:26:00;5.77;;;2.37;;
59530;SDS011;45349;48.692;8.186;2024-01-30T05:28:30;4.95;;;3.30;;
59530;SDS011;45349;48.692;8.186;2024-01-30T05:30:58;6.03;;;3.27;;
59530;SDS011;45349;48.692;8.186;2024-01-30T05:33:27;5.73;;;3.13;;
59530;SDS011;45349;48.692;8.186;2024-01-30T05:35:54;5.00;;;3.20;;
59530;SDS011;45349;48.692;8.186;2024-01-30T05:38:21;5.73;;;2.90;;
59530;SDS011;45349;48.692;8.186;2024-01-30T05:40:47;9.20;;;2.60;;
59530;SDS011;45349;48.692;8.186;2024-01-30T05:43:14;4.43;;;2.80;;
59530;SDS011;45349;48.692;8.186;2024-01-30T05:45:41;4.80;;;2.80;;
59530;SDS011;45349;48.692;8.186;2024-01-30T05:48:08;4.53;;;3.20;;
59530;SDS011;45349;48.692;8.186;2024-01-30T05:50:35;5.53;;;3.10;;
59530;SDS011;45349;48.692;8.186;2024-01-30T05:53:02;8.90;;;4.13;;
59530;SDS011;45349;48.692;8.186;2024-01-30T05:55:28;4.77;;;2.73;;
59530;SDS011;45349;48.692;8.186;2024-01-30T05:57:55;5.25;;;3.35;;
59530;SDS011;45349;48.692;8.186;2024-01-30T06:00:22;5.30;;;2.97;;
59530;SDS011;45349;48.692;8.186;2024-01-30T06:02:48;5.70;;;3.00;;
59530;SDS011;45349;48.692;8.186;2024-01-30T06:05:16;4.27;;;2.37;;
59530;SDS011;45349;48.692;8.186;2024-01-30T06:07:43;4.43;;;2.30;;
59530;SDS011;45349;48.692;8.186;2024-01-30T06:10:10;3.00;;;2.50;;
59530;SDS011;45349;48.692;8.186;2024-01-30T06:12:36;4.17;;;2.57;;
59530;SDS011;45349;48.692;8.186;2024-01-30T06:15:04;7.33;;;2.73;;
59530;SDS011;45349;48.692;8.186;2024-01-30T06:17:31;5.77;;;2.80;;
59530;SDS011;45349;48.692;8.186;2024-01-30T06:19:58;19.03;;;8.43;;
59530;SDS011;45349;48.692;8.186;2024-01-30T06:22:26;28.33;;;13.43;;
59530;SDS011;45349;48.692;8.186;2024-01-30T06:24:53;11.80;;;7.43;;
59530;SDS011;45349;48.692;8.186;2024-01-30T06:27:20;9.00;;;5.10;;
59530;SDS011;45349;48.692;8.186;2024-01-30T06:29:46;16.47;;;9.40;;
59530;SDS011;45349;48.692;8.186;2024-01-30T06:32:13;10.83;;;5.40;;
59530;SDS011;45349;48.692;8.186;2024-01-30T06:34:40;10.47;;;4.70;;
59530;SDS011;45349;48.692;8.186;2024-01-30T06:37:09;41.40;;;19.23;;
59530;SDS011;45349;48.692;8.186;2024-01-30T06:39:37;83.00;;;41.70;;
59530;SDS011;45349;48.692;8.186;2024-01-30T06:42:04;22.90;;;12.30;;
59530;SDS011;45349;48.692;8.186;2024-01-30T06:44:31;9.40;;;5.67;;
59530;SDS011;45349;48.692;8.186;2024-01-30T06:46:57;15.27;;;7.70;;
59530;SDS011;45349;48.692;8.186;2024-01-30T06:49:24;9.17;;;4.80;;
59530;SDS011;45349;48.692;8.186;2024-01-30T06:51:51;6.13;;;3.13;;
59530;SDS011;45349;48.692;8.186;2024-01-30T06:54:17;4.37;;;2.67;;
59530;SDS011;45349;48.692;8.186;2024-01-30T06:56:45;6.37;;;2.77;;
59530;SDS011;45349;48.692;8.186;2024-01-30T06:59:12;4.57;;;3.10;;
59530;SDS011;45349;48.692;8.186;2024-01-30T07:01:39;4.60;;;3.20;;
59530;SDS011;45349;48.692;8.186;2024-01-30T07:04:05;3.63;;;2.57;;
59530;SDS011;45349;48.692;8.186;2024-01-30T07:06:32;4.03;;;2.70;;
59530;SDS011;45349;48.692;8.186;2024-01-30T07:08:58;6.23;;;4.20;;
59530;SDS011;45349;48.692;8.186;2024-01-30T07:11:25;5.93;;;4.30;;
59530;SDS011;45349;48.692;8.186;2024-01-30T07:13:55;9.80;;;6.03;;
59530;SDS011;45349;48.692;8.186;2024-01-30T07:16:21;6.50;;;5.17;;
59530;SDS011;45349;48.692;8.186;2024-01-30T07:18:48;6.17;;;3.53;;
59530;SDS011;45349;48.692;8.186;2024-01-30T07:21:15;7.47;;;3.70;;
59530;SDS011;45349;48.692;8.186;2024-01-30T07:23:42;4.07;;;2.97;;
59530;SDS011;45349;48.692;8.186;2024-01-30T07:26:09;5.13;;;3.10;;
59530;SDS011;45349;48.692;8.186;2024-01-30T07:28:35;16.90;;;4.63;;
59530;SDS011;45349;48.692;8.186;2024-01-30T07:31:03;18.07;;;5.63;;
59530;SDS011;45349;48.692;8.186;2024-01-30T07:33:31;15.97;;;5.70;;
59530;SDS011;45349;48.692;8.186;2024-01-30T07:35:58;13.70;;;5.63;;
59530;SDS011;45349;48.692;8.186;2024-01-30T07:38:31;14.50;;;5.87;;
59530;SDS011;45349;48.692;8.186;2024-01-30T07:40:58;12.67;;;7.23;;
59530;SDS011;45349;48.692;8.186;2024-01-30T07:43:27;19.30;;;9.83;;
59530;SDS011;45349;48.692;8.186;2024-01-30T07:45:54;20.97;;;12.07;;
59530;SDS011;45349;48.692;8.186;2024-01-30T07:48:22;17.70;;;11.70;;
59530;SDS011;45349;48.692;8.186;2024-01-30T07:50:48;19.90;;;10.63;;
59530;SDS011;45349;48.692;8.186;2024-01-30T07:53:15;17.17;;;10.30;;
59530;SDS011;45349;48.692;8.186;2024-01-30T07:55:42;16.13;;;9.57;;
59530;SDS011;45349;48.692;8.186;2024-01-30T07:58:11;15.82;;;10.50;;
59530;SDS011;45349;48.692;8.186;2024-01-30T08:00:39;16.30;;;10.20;;
59530;SDS011;45349;48.692;8.186;2024-01-30T08:03:05;16.13;;;9.23;;
59530;SDS011;45349;48.692;8.186;2024-01-30T08:05:33;14.47;;;8.67;;
59530;SDS011;45349;48.692;8.186;2024-01-30T08:08:00;13.97;;;9.07;;
59530;SDS011;45349;48.692;8.186;2024-01-30T08:10:27;20.03;;;8.90;;
59530;SDS011;45349;48.692;8.186;2024-01-30T08:12:53;14.27;;;8.90;;
59530;SDS011;45349;48.692;8.186;2024-01-30T08:15:20;12.17;;;8.10;;
59530;SDS011;45349;48.692;8.186;2024-01-30T08:17:47;14.83;;;9.60;;
59530;SDS011;45349;48.692;8.186;2024-01-30T08:20:13;16.43;;;9.03;;
59530;SDS011;45349;48.692;8.186;2024-01-30T08:22:41;16.23;;;8.47;;
59530;SDS011;45349;48.692;8.186;2024-01-30T08:25:08;13.17;;;8.10;;
59530;SDS011;45349;48.692;8.186;2024-01-30T08:27:35;13.80;;;8.70;;
59530;SDS011;45349;48.692;8.186;2024-01-30T08:30:04;14.33;;;8.47;;
59530;SDS011;45349;48.692;8.186;2024-01-30T08:32:31;14.97;;;8.50;;
59530;SDS011;45349;48.692;8.186;2024-01-30T08:34:59;13.20;;;8.10;;
59530;SDS011;45349;48.692;8.186;2024-01-30T08:37:28;13.47;;;7.30;;
59530;SDS011;45349;48.692;8.186;2024-01-30T08:39:56;11.23;;;7.07;;
59530;SDS011;45349;48.692;8.186;2024-01-30T08:42:23;24.13;;;15.40;;
59530;SDS011;45349;48.692;8.186;2024-01-30T08:44:51;14.27;;;8.03;;
59530;SDS011;45349;48.692;8.186;2024-01-30T08:47:18;9.87;;;7.03;;
59530;SDS011;45349;48.692;8.186;2024-01-30T08:49:45;12.67;;;6.53;;
59530;SDS011;45349;48.692;8.186;2024-01-30T08:52:11;10.10;;;6.63;;
59530;SDS011;45349;48.692;8.186;2024-01-30T08:54:38;12.00;;;7.43;;
59530;SDS011;45349;48.692;8.186;2024-01-30T08:57:06;10.77;;;7.67;;
59530;SDS011;45349;48.692;8.186;2024-01-30T08:59:33;13.90;;;8.70;;
59530;SDS011;45349;48.692;8.186;2024-01-30T09:01:59;16.03;;;9.00;;
59530;SDS011;45349;48.692;8.186;2024-01-30T09:04:26;13.07;;;9.67;;
59530;SDS011;45349;48.692;8.186;2024-01-30T09:06:53;12.60;;;8.87;;
59530;SDS011;45349;48.692;8.186;2024-01-30T09:09:20;12.47;;;7.47;;
59530;SDS011;45349;48.692;8.186;2024-01-30T09:11:46;15.93;;;9.00;;
59530;SDS011;45349;48.692;8.186;2024-01-30T09:14:14;13.03;;;8.60;;
59530;SDS011;45349;48.692;8.186;2024-01-30T09:16:41;13.93;;;7.53;;
59530;SDS011;45349;48.692;8.186;2024-01-30T09:19:08;12.20;;;8.20;;
59530;SDS011;45349;48.692;8.186;2024-01-30T09:21:34;13.50;;;7.63;;
59530;SDS011;45349;48.692;8.186;2024-01-30T09:24:01;13.23;;;8.53;;
59530;SDS011;45349;48.692;8.186;2024-01-30T09:26:28;14.93;;;7.77;;
59530;SDS011;45349;48.692;8.186;2024-01-30T09:28:55;13.20;;;8.60;;
59530;SDS011;45349;48.692;8.186;2024-01-30T09:31:23;11.17;;;7.60;;
59530;SDS011;45349;48.692;8.186;2024-01-30T09:33:49;12.77;;;7.50;;
59530;SDS011;45349;48.692;8.186;2024-01-30T09:36:18;12.17;;;7.17;;
59530;SDS011;45349;48.692;8.186;2024-01-30T09:38:45;10.50;;;7.27;;
59530;SDS011;45349;48.692;8.186;2024-01-30T09:41:12;10.53;;;6.77;;
59530;SDS011;45349;48.692;8.186;2024-01-30T09:43:39;14.90;;;7.80;;
59530;SDS011;45349;48.692;8.186;2024-01-30T09:46:06;10.33;;;7.53;;
59530;SDS011;45349;48.692;8.186;2024-01-30T09:48:39;13.37;;;7.93;;
59530;SDS011;45349;48.692;8.186;2024-01-30T09:51:07;13.33;;;7.63;;
59530;SDS011;45349;48.692;8.186;2024-01-30T09:56:51;11.47;;;6.70;;
59530;SDS011;45349;48.692;8.186;2024-01-30T09:59:18;13.57;;;6.97;;
59530;SDS011;45349;48.692;8.186;2024-01-30T10:01:45;9.30;;;6.13;;
59530;SDS011;45349;48.692;8.186;2024-01-30T10:04:13;11.00;;;6.40;;
59530;SDS011;45349;48.692;8.186;2024-01-30T10:06:40;10.23;;;6.13;;
59530;SDS011;45349;48.692;8.186;2024-01-30T10:09:06;16.73;;;8.83;;
59530;SDS011;45349;48.692;8.186;2024-01-30T10:11:33;15.23;;;9.43;;
59530;SDS011;45349;48.692;8.186;2024-01-30T10:14:00;15.57;;;8.93;;
59530;SDS011;45349;48.692;8.186;2024-01-30T10:16:27;13.03;;;7.93;;
59530;SDS011;45349;48.692;8.186;2024-01-30T10:18:54;17.60;;;8.80;;
59530;SDS011;45349;48.692;8.186;2024-01-30T10:21:22;14.60;;;8.20;;
59530;SDS011;45349;48.692;8.186;2024-01-30T10:23:49;20.40;;;8.23;;
59530;SDS011;45349;48.692;8.186;2024-01-30T10:26:16;13.83;;;8.27;;
59530;SDS011;45349;48.692;8.186;2024-01-30T10:28:43;16.40;;;10.50;;
59530;SDS011;45349;48.692;8.186;2024-01-30T10:31:10;15.57;;;9.57;;
59530;SDS011;45349;48.692;8.186;2024-01-30T10:33:36;13.13;;;8.53;;
59530;SDS011;45349;48.692;8.186;2024-01-30T10:36:04;14.70;;;8.97;;
59530;SDS011;45349;48.692;8.186;2024-01-30T10:38:32;12.87;;;8.20;;
59530;SDS011;45349;48.692;8.186;2024-01-30T10:40:59;11.77;;;7.80;;
59530;SDS011;45349;48.692;8.186;2024-01-30T10:43:30;12.60;;;8.27;;
59530;SDS011;45349;48.692;8.186;2024-01-30T10:46:01;13.07;;;7.07;;
59530;SDS011;45349;48.692;8.186;2024-01-30T10:48:36;11.93;;;8.20;;
59530;SDS011;45349;48.692;8.186;2024-01-30T10:51:08;14.90;;;7.83;;
59530;SDS011;45349;48.692;8.186;2024-01-30T10:53:38;11.37;;;7.73;;
59530;SDS011;45349;48.692;8.186;2024-01-30T10:56:06;21.03;;;11.60;;
59530;SDS011;45349;48.692;8.186;2024-01-30T10:58:34;16.07;;;9.43;;
59530;SDS011;45349;48.692;8.186;2024-01-30T11:01:01;17.73;;;10.13;;
59530;SDS011;45349;48.692;8.186;2024-01-30T11:03:30;15.47;;;10.20;;
59530;SDS011;45349;48.692;8.186;2024-01-30T11:05:59;16.20;;;10.40;;
59530;SDS011;45349;48.692;8.186;2024-01-30T11:08:31;15.90;;;9.50;;
59530;SDS011;45349;48.692;8.186;2024-01-30T11:11:00;13.80;;;9.17;;
59530;SDS011;45349;48.692;8.186;2024-01-30T11:13:30;16.10;;;9.97;;
59530;SDS011;45349;48.692;8.186;2024-01-30T11:15:59;13.33;;;9.40;;
59530;SDS011;45349;48.692;8.186;2024-01-30T11:18:30;14.80;;;8.90;;
59530;SDS011;45349;48.692;8.186;2024-01-30T11:20:58;14.87;;;9.60;;
59530;SDS011;45349;48.692;8.186;2024-01-30T11:23:30;15.20;;;8.97;;
59530;SDS011;45349;48.692;8.186;2024-01-30T11:25:57;14.97;;;9.17;;
59530;SDS011;45349;48.692;8.186;2024-01-30T11:28:25;13.93;;;8.80;;
59530;SDS011;45349;48.692;8.186;2024-01-30T11:31:02;14.23;;;8.67;;
59530;SDS011;45349;48.692;8.186;2024-01-30T11:33:29;14.50;;;8.70;;
59530;SDS011;45349;48.692;8.186;2024-01-30T11:35:57;16.27;;;8.83;;
59530;SDS011;45349;48.692;8.186;2024-01-30T11:38:27;14.17;;;8.43;;
59530;SDS011;45349;48.692;8.186;2024-01-30T11:40:54;14.97;;;8.33;;
59530;SDS011;45349;48.692;8.186;2024-01-30T11:43:22;14.40;;;8.57;;
59530;SDS011;45349;48.692;8.186;2024-01-30T11:45:50;14.23;;;8.20;;
59530;SDS011;45349;48.692;8.186;2024-01-30T11:48:17;10.13;;;7.93;;
59530;SDS011;45349;48.692;8.186;2024-01-30T11:50:44;14.47;;;7.60;;
59530;SDS011;45349;48.692;8.186;2024-01-30T11:53:10;11.73;;;7.87;;
59530;SDS011;45349;48.692;8.186;2024-01-30T11:55:37;13.53;;;8.23;;
59530;SDS011;45349;48.692;8.186;2024-01-30T11:58:04;13.80;;;7.63;;
59530;SDS011;45349;48.692;8.186;2024-01-30T12:00:31;17.87;;;8.83;;
59530;SDS011;45349;48.692;8.186;2024-01-30T12:02:59;16.30;;;8.10;;
59530;SDS011;45349;48.692;8.186;2024-01-30T12:05:27;15.80;;;8.47;;
59530;SDS011;45349;48.692;8.186;2024-01-30T12:07:54;14.73;;;8.90;;
59530;SDS011;45349;48.692;8.186;2024-01-30T12:10:23;12.13;;;8.10;;
59530;SDS011;45349;48.692;8.186;2024-01-30T12:12:50;20.10;;;12.00;;
59530;SDS011;45349;48.692;8.186;2024-01-30T12:15:18;16.90;;;9.47;;
59530;SDS011;45349;48.692;8.186;2024-01-30T12:17:46;13.47;;;7.97;;
59530;SDS011;45349;48.692;8.186;2024-01-30T12:20:15;13.23;;;8.90;;
59530;SDS011;45349;48.692;8.186;2024-01-30T12:22:44;16.77;;;12.37;;
59530;SDS011;45349;48.692;8.186;2024-01-30T12:25:13;14.20;;;8.80;;
59530;SDS011;45349;48.692;8.186;2024-01-30T12:27:42;12.93;;;8.80;;
59530;SDS011;45349;48.692;8.186;2024-01-30T12:30:09;11.20;;;7.80;;
59530;SDS011;45349;48.692;8.186;2024-01-30T12:32:39;10.53;;;6.73;;
59530;SDS011;45349;48.692;8.186;2024-01-30T12:35:07;12.77;;;10.17;;
59530;SDS011;45349;48.692;8.186;2024-01-30T12:37:35;12.80;;;7.30;;
59530;SDS011;45349;48.692;8.186;2024-01-30T12:40:02;10.90;;;7.00;;
59530;SDS011;45349;48.692;8.186;2024-01-30T12:42:31;9.20;;;6.50;;
59530;SDS011;45349;48.692;8.186;2024-01-30T12:44:58;12.27;;;6.10;;
59530;SDS011;45349;48.692;8.186;2024-01-30T12:47:25;14.03;;;6.43;;
59530;SDS011;45349;48.692;8.186;2024-01-30T12:49:51;9.47;;;5.33;;
59530;SDS011;45349;48.692;8.186;2024-01-30T12:52:19;11.67;;;7.10;;
59530;SDS011;45349;48.692;8.186;2024-01-30T12:54:47;10.40;;;6.80;;
59530;SDS011;45349;48.692;8.186;2024-01-30T12:57:15;12.13;;;8.10;;
59530;SDS011;45349;48.692;8.186;2024-01-30T12:59:41;13.27;;;8.57;;
59530;SDS011;45349;48.692;8.186;2024-01-30T13:02:08;13.97;;;8.13;;
59530;SDS011;45349;48.692;8.186;2024-01-30T13:04:35;13.97;;;8.57;;
59530;SDS011;45349;48.692;8.186;2024-01-30T13:07:02;16.73;;;8.60;;
59530;SDS011;45349;48.692;8.186;2024-01-30T13:09:29;13.53;;;8.93;;
59530;SDS011;45349;48.692;8.186;2024-01-30T13:11:58;13.70;;;8.63;;
59530;SDS011;45349;48.692;8.186;2024-01-30T13:14:25;12.07;;;8.37;;
59530;SDS011;45349;48.692;8.186;2024-01-30T13:16:52;18.30;;;8.73;;
59530;SDS011;45349;48.692;8.186;2024-01-30T13:19:19;12.60;;;8.10;;
59530;SDS011;45349;48.692;8.186;2024-01-30T13:21:46;13.63;;;8.10;;
59530;SDS011;45349;48.692;8.186;2024-01-30T13:24:12;12.23;;;6.93;;
59530;SDS011;45349;48.692;8.186;2024-01-30T13:26:39;11.50;;;6.80;;
59530;SDS011;45349;48.692;8.186;2024-01-30T13:29:07;12.67;;;6.70;;
59530;SDS011;45349;48.692;8.186;2024-01-30T13:31:34;12.00;;;7.13;;
59530;SDS011;45349;48.692;8.186;2024-01-30T13:34:01;10.70;;;6.23;;
59530;SDS011;45349;48.692;8.186;2024-01-30T13:36:27;9.70;;;7.17;;
59530;SDS011;45349;48.692;8.186;2024-01-30T13:38:54;9.30;;;6.07;;
59530;SDS011;45349;48.692;8.186;2024-01-30T13:41:20;14.43;;;6.33;;
59530;SDS011;45349;48.692;8.186;2024-01-30T13:43:48;11.63;;;6.30;;
59530;SDS011;45349;48.692;8.186;2024-01-30T13:46:16;11.47;;;6.03;;
59530;SDS011;45349;48.692;8.186;2024-01-30T13:48:43;12.40;;;5.70;;
59530;SDS011;45349;48.692;8.186;2024-01-30T13:51:09;13.13;;;6.23;;
59530;SDS011;45349;48.692;8.186;2024-01-30T13:53:38;10.87;;;6.27;;
59530;SDS011;45349;48.692;8.186;2024-01-30T13:56:05;11.80;;;5.60;;
59530;SDS011;45349;48.692;8.186;2024-01-30T13:58:32;9.37;;;6.03;;
59530;SDS011;45349;48.692;8.186;2024-01-30T14:01:01;11.93;;;5.83;;
59530;SDS011;45349;48.692;8.186;2024-01-30T14:03:30;10.77;;;6.47;;
59530;SDS011;45349;48.692;8.186;2024-01-30T14:05:57;9.93;;;5.83;;
59530;SDS011;45349;48.692;8.186;2024-01-30T14:08:24;13.57;;;5.77;;
59530;SDS011;45349;48.692;8.186;2024-01-30T14:10:53;9.83;;;5.93;;
59530;SDS011;45349;48.692;8.186;2024-01-30T14:13:19;8.17;;;5.07;;
59530;SDS011;45349;48.692;8.186;2024-01-30T14:15:47;11.20;;;5.10;;
59530;SDS011;45349;48.692;8.186;2024-01-30T14:18:14;7.87;;;4.97;;
59530;SDS011;45349;48.692;8.186;2024-01-30T14:20:42;9.40;;;4.73;;
59530;SDS011;45349;48.692;8.186;2024-01-30T14:23:09;7.33;;;5.10;;
59530;SDS011;45349;48.692;8.186;2024-01-30T14:25:35;14.63;;;5.47;;
59530;SDS011;45349;48.692;8.186;2024-01-30T14:28:02;14.83;;;5.60;;
59530;SDS011;45349;48.692;8.186;2024-01-30T14:30:29;9.37;;;5.97;;
59530;SDS011;45349;48.692;8.186;2024-01-30T14:32:55;9.97;;;5.00;;
59530;SDS011;45349;48.692;8.186;2024-01-30T14:35:22;7.63;;;4.07;;
59530;SDS011;45349;48.692;8.186;2024-01-30T14:37:50;8.43;;;5.40;;
59530;SDS011;45349;48.692;8.186;2024-01-30T14:40:17;9.00;;;5.20;;
59530;SDS011;45349;48.692;8.186;2024-01-30T14:42:44;8.30;;;5.20;;
59530;SDS011;45349;48.692;8.186;2024-01-30T14:45:10;9.40;;;5.47;;